Date,TemperatureHighF,TemperatureAvgF,TemperatureLowF,DewpointHighF,DewpointAvgF,DewpointLowF,HumidityHigh,HumidityAvg,HumidityLow,PressureMaxIn,PressureMinIn,WindSpeedMaxMPH,WindSpeedAvgMPH,GustSpeedMaxMPH,PrecipitationSumIn
2012-1-1,28,19,6,-100,-100,-100,0,0,100,0.00,40.00,0,-999,0,0.00
2012-1-2,27,12,-3,-100,-100,-100,0,0,100,0.00,40.00,0,-999,0,0.00
2012-1-3,33,20,12,-100,-100,-100,0,0,100,0.00,40.00,0,-999,0,0.00
2012-1-4,35,25,16,-100,-100,-100,0,0,100,0.00,40.00,0,-999,0,0.00
2012-1-5,39,24,4,-100,-100,-100,0,0,100,0.00,40.00,0,-999,0,0.00
2012-1-6,29,24,18,-100,-100,-100,0,0,100,0.00,40.00,0,-999,0,0.00
2012-1-7,31,18,11,-100,-100,-100,0,0,100,0.00,40.00,0,-999,0,0.00
2012-1-8,24,22,20,-100,-100,-100,0,0,100,0.00,40.00,0,-999,0,0.00
2012-1-9,29,25,21,-100,-100,-100,0,0,100,0.00,40.00,0,-999,0,0.00
2012-1-10,30,27,24,-100,-100,-100,0,0,100,0.00,40.00,0,-999,0,0.00
2012-1-11,18,2,-13,-100,-100,-100,0,0,100,0.00,40.00,0,-999,0,0.00
2012-1-12,19,0,-22,-100,-100,-100,0,0,100,0.00,40.00,0,-999,0,0.00
2012-1-13,26,9,-6,-100,-100,-100,0,0,100,0.00,40.00,0,-999,0,0.00
2012-1-14,32,26,16,-100,-100,-100,0,0,100,0.00,40.00,0,-999,0,0.00
2012-1-15,37,28,20,-100,-100,-100,0,0,100,0.00,40.00,0,-999,0,0.00
2012-1-16,18,11,-9,-100,-100,-100,0,0,100,0.00,40.00,0,-999,0,0.01
2012-1-17,15,10,5,-100,-100,-100,0,0,100,0.00,40.00,0,-999,0,0.00
2012-1-18,27,22,15,-100,-100,-100,0,0,100,0.00,40.00,0,-999,0,0.01
2012-1-19,33,30,27,-100,-100,-100,0,0,100,0.00,40.00,0,-999,0,0.02
2012-1-20,35,33,31,-100,-100,-100,0,0,100,0.00,40.00,0,-999,0,0.02
2012-1-21,37,34,31,-100,-100,-100,0,0,100,0.00,40.00,0,-999,0,0.02
2012-1-22,29,20,11,-100,-100,-100,0,0,100,0.00,40.00,0,-999,0,0.00
2012-1-23,31,26,22,-100,-100,-100,0,0,100,0.00,40.00,0,-999,0,0.01
2012-1-24,26,10,-15,-100,-100,-100,0,0,100,0.00,40.00,0,-999,0,0.00
2012-1-25,32,27,23,-100,-100,-100,0,0,100,0.00,40.00,0,-999,0,0.01
2012-1-26,33,29,23,-100,-100,-100,0,0,100,0.00,40.00,0,-999,0,0.01
2012-1-27,25,16,2,-100,-100,-100,0,0,100,0.00,40.00,0,-999,0,0.00
2012-1-28,24,20,16,-100,-100,-100,0,0,100,0.00,40.00,0,-999,0,0.00
2012-1-29,30,24,18,-100,-100,-100,0,0,100,0.00,40.00,0,-999,0,0.00
2012-1-30,32,25,18,-100,-100,-100,0,0,100,0.00,40.00,0,-999,0,0.00
2012-1-31,30,27,24,-100,-100,-100,0,0,100,0.00,40.00,0,-999,0,0.00
2012-2-1,36,25,14,-100,-100,-100,0,0,100,0.00,40.00,0,-999,0,0.00
2012-2-2,32,27,21,-100,-100,-100,0,0,100,0.00,40.00,0,-999,0,0.00
2012-2-3,36,16,-4,-100,-100,-100,0,0,100,0.00,40.00,0,-999,0,0.00
2012-2-4,32,4,-16,-100,-100,-100,0,0,100,0.00,40.00,0,-999,0,0.00
2012-2-5,20,0,-13,-100,-100,-100,0,0,100,0.00,40.00,0,-999,0,0.00
2012-2-6,32,5,-14,-100,-100,-100,0,0,100,0.00,40.00,0,-999,0,0.00
2012-2-7,32,7,-6,-100,-100,-100,0,0,100,0.00,40.00,0,-999,0,0.00
2012-2-8,32,6,-16,-100,-100,-100,0,0,100,0.00,40.00,0,-999,0,0.00
2012-2-9,36,27,22,-100,-100,-100,0,0,100,0.00,40.00,0,-999,0,0.00
2012-2-10,34,28,24,-100,-100,-100,0,0,100,0.00,40.00,0,-999,0,0.00
2012-2-11,41,33,28,-100,-100,-100,0,0,100,0.00,40.00,0,-999,0,0.00
2012-2-12,41,34,30,-100,-100,-100,0,0,100,0.00,40.00,0,-999,0,0.01
2012-2-13,38,32,28,-100,-100,-100,0,0,100,0.00,40.00,0,-999,0,0.00
2012-2-14,35,30,25,-100,-100,-100,0,0,100,0.00,40.00,0,-999,0,0.00
2012-2-15,33,19,5,-100,-100,-100,0,0,100,0.00,40.00,0,-999,0,0.00
2012-2-16,25,15,-13,-100,-100,-100,0,0,100,0.00,40.00,0,-999,0,0.00
2012-2-17,35,25,20,-100,-100,-100,0,0,100,0.00,40.00,0,-999,0,0.01
2012-2-18,33,26,18,-100,-100,-100,0,0,100,0.00,40.00,0,-999,0,0.02
2012-2-19,33,23,13,-100,-100,-100,0,0,100,0.00,40.00,0,-999,0,0.01
2012-2-20,25,18,8,-100,-100,-100,0,0,100,0.00,40.00,0,-999,0,0.00
2012-2-21,29,26,22,-100,-100,-100,0,0,100,0.00,40.00,0,-999,0,0.02
2012-2-22,36,34,32,-100,-100,-100,0,0,100,0.00,40.00,0,-999,0,0.01
2012-2-23,33,17,5,-100,-100,-100,0,0,100,0.00,40.00,0,-999,0,0.00
2012-2-24,27,20,14,-100,-100,-100,0,0,100,0.00,40.00,0,-999,0,0.00
2012-2-25,28,23,17,-100,-100,-100,0,0,100,0.00,40.00,0,-999,0,0.02
2012-2-26,25,18,13,-100,-100,-100,0,0,100,0.00,40.00,0,-999,0,0.00
2012-2-27,32,15,1,-100,-100,-100,0,0,100,0.00,40.00,0,-999,0,0.00
2012-2-28,29,22,14,-100,-100,-100,0,0,100,0.00,40.00,0,-999,0,0.01
2012-2-29,28,25,21,-100,-100,-100,0,0,100,0.00,40.00,0,-999,0,0.01
2012-3-1,23,16,7,-100,-100,-100,0,0,100,0.00,40.00,0,-999,0,0.01
2012-3-2,23,10,-16,-100,-100,-100,0,0,100,0.00,40.00,0,-999,0,0.00
2012-3-3,31,25,19,-100,-100,-100,0,0,100,0.00,40.00,0,-999,0,0.01
2012-3-4,34,32,30,-100,-100,-100,0,0,100,0.00,40.00,0,-999,0,0.00
2012-3-5,42,35,23,-100,-100,-100,0,0,100,0.00,40.00,0,-999,0,0.00
2012-3-6,35,32,26,-100,-100,-100,0,0,100,0.00,40.00,0,-999,0,0.00
2012-3-7,35,9,-15,-100,-100,-100,0,0,100,0.00,40.00,0,-999,0,0.01
2012-3-8,40,15,-14,-100,-100,-100,0,0,100,0.00,40.00,0,-999,0,0.00
2012-3-9,50,23,-3,-100,-100,-100,0,0,100,0.00,40.00,0,-999,0,0.00
2012-3-10,51,23,-1,-100,-100,-100,0,0,100,0.00,40.00,0,-999,0,0.00
2012-3-11,50,32,11,-100,-100,-100,0,0,100,0.00,40.00,0,-999,0,0.00
2012-3-12,48,39,32,-100,-100,-100,0,0,100,0.00,40.00,0,-999,0,0.00
2012-3-13,47,42,39,-100,-100,-100,0,0,100,0.00,40.00,0,-999,0,0.00
2012-3-14,38,36,35,-100,-100,-100,0,0,100,0.00,40.00,0,-999,0,0.02
2012-3-15,43,39,37,-100,-100,-100,0,0,100,0.00,40.00,0,-999,0,0.02
2012-3-16,43,38,35,-100,-100,-100,0,0,100,0.00,40.00,0,-999,0,0.03
2012-3-17,45,38,35,-100,-100,-100,0,0,100,0.00,40.00,0,-999,0,0.04
2012-3-18,39,35,31,-100,-100,-100,0,0,100,0.00,40.00,0,-999,0,0.03
2012-3-19,40,30,23,-100,-100,-100,0,0,100,0.00,40.00,0,-999,0,0.01
2012-3-20,30,25,18,-100,-100,-100,0,0,100,0.00,40.00,0,-999,0,0.00
2012-3-21,46,39,33,-100,-100,-100,0,0,100,0.00,40.00,0,-999,0,0.00
2012-3-22,57,39,25,-100,-100,-100,0,0,100,0.00,40.00,0,-999,0,0.00
2012-3-23,55,44,33,-100,-100,-100,0,0,100,0.00,40.00,0,-999,0,0.00
2012-3-24,59,38,23,-100,-100,-100,0,0,100,0.00,40.00,0,-999,0,0.00
2012-3-25,59,45,26,-100,-100,-100,0,0,100,0.00,40.00,0,-999,0,0.00
2012-3-26,55,38,31,-100,-100,-100,0,0,100,0.00,40.00,0,-999,0,0.01
2012-3-27,41,36,31,-100,-100,-100,0,0,100,0.00,40.00,0,-999,0,0.00
2012-3-28,50,38,26,-100,-100,-100,0,0,100,0.00,40.00,0,-999,0,0.00
2012-3-29,38,35,32,-100,-100,-100,0,0,100,0.00,40.00,0,-999,0,0.00
2012-3-30,43,39,37,-100,-100,-100,0,0,100,0.00,40.00,0,-999,0,0.02
2012-3-31,57,48,39,-100,-100,-100,0,0,100,0.00,40.00,0,-999,0,0.02
2012-4-1,44,36,30,-100,-100,-100,0,0,100,0.00,40.00,0,-999,0,0.00
2012-4-2,46,34,24,-100,-100,-100,0,0,100,0.00,40.00,0,-999,0,0.00
2012-4-3,53,28,17,-100,-100,-100,0,0,100,0.00,40.00,0,-999,0,0.00
2012-4-4,55,38,26,-100,-100,-100,0,0,100,0.00,40.00,0,-999,0,0.00
2012-4-5,46,35,30,-100,-100,-100,0,0,100,0.00,40.00,0,-999,0,0.00
2012-4-6,33,29,26,-100,-100,-100,0,0,100,0.00,40.00,0,-999,0,0.03
2012-4-7,36,26,20,-100,-100,-100,0,0,100,0.00,40.00,0,-999,0,0.03
2012-4-8,56,35,13,-100,-100,-100,0,0,100,0.00,40.00,0,-999,0,0.00
2012-4-9,65,39,23,-100,-100,-100,0,0,100,0.00,40.00,0,-999,0,0.00
2012-4-10,70,54,36,-100,-100,-100,0,0,100,0.00,40.00,0,-999,0,0.00
2012-4-11,68,53,37,-100,-100,-100,0,0,100,0.00,40.00,0,-999,0,0.00
2012-4-12,44,37,32,-100,-100,-100,0,0,100,0.00,40.00,0,-999,0,0.02
2012-4-13,47,37,28,-100,-100,-100,0,0,100,0.00,40.00,0,-999,0,0.00
2012-4-14,54,37,25,-100,-100,-100,0,0,100,0.00,40.00,0,-999,0,0.00
2012-4-15,44,34,27,-100,-100,-100,0,0,100,0.00,40.00,0,-999,0,0.01
2012-4-16,46,33,19,-100,-100,-100,0,0,100,0.00,40.00,0,-999,0,0.00
2012-4-17,55,42,36,-100,-100,-100,0,0,100,0.00,40.00,0,-999,0,0.01
2012-4-18,48,39,32,-100,-100,-100,0,0,100,0.00,40.00,0,-999,0,0.02
2012-4-19,54,41,29,-100,-100,-100,0,0,100,0.00,40.00,0,-999,0,0.00
2012-4-20,58,49,41,-100,-100,-100,0,0,100,0.00,40.00,0,-999,0,0.00
2012-4-21,60,47,36,-100,-100,-100,0,0,100,0.00,40.00,0,-999,0,0.00
2012-4-22,71,54,38,-100,-100,-100,0,0,100,0.00,40.00,0,-999,0,0.00
2012-4-23,74,49,32,-100,-100,-100,0,0,100,0.00,40.00,0,-999,0,0.00
2012-4-24,71,50,38,-100,-100,-100,0,0,100,0.00,40.00,0,-999,0,0.01
2012-4-25,65,48,39,-100,-100,-100,0,0,100,0.00,40.00,0,-999,0,0.00
2012-4-26,59,49,39,-100,-100,-100,0,0,100,0.00,40.00,0,-999,0,0.02
2012-4-27,43,37,32,-100,-100,-100,0,0,100,0.00,40.00,0,-999,0,0.02
2012-4-28,41,35,31,-100,-100,-100,0,0,100,0.00,40.00,0,-999,0,0.00
2012-4-29,50,40,33,-100,-100,-100,0,0,100,0.00,40.00,0,-999,0,0.00
2012-4-30,48,41,34,-100,-100,-100,0,0,100,0.00,40.00,0,-999,0,0.00
2012-5-1,42,39,37,-100,-100,-100,0,0,100,0.00,40.00,0,-999,0,0.03
2012-5-2,50,41,33,-100,-100,-100,0,0,100,0.00,40.00,0,-999,0,0.00
2012-5-3,50,42,35,-100,-100,-100,0,0,100,0.00,40.00,0,-999,0,0.00
2012-5-4,55,46,38,-100,-100,-100,0,0,100,0.00,40.00,0,-999,0,0.00
2012-5-5,43,36,30,-100,-100,-100,0,0,100,0.00,40.00,0,-999,0,0.01
2012-5-6,44,36,28,-100,-100,-100,0,0,100,0.00,40.00,0,-999,0,0.00
2012-5-7,59,49,32,-100,-100,-100,0,0,100,0.00,40.00,0,-999,0,0.00
2012-5-8,65,47,28,-100,-100,-100,0,0,100,0.00,40.00,0,-999,0,0.00
2012-5-9,70,54,35,-100,-100,-100,0,0,100,0.00,40.00,0,-999,0,0.00
2012-5-10,51,42,36,-100,-100,-100,0,0,100,0.00,40.00,0,-999,0,0.01
2012-5-11,48,40,32,-100,-100,-100,0,0,100,0.00,40.00,0,-999,0,0.00
2012-5-12,61,48,36,-100,-100,-100,0,0,100,0.00,40.00,0,-999,0,0.00
2012-5-13,67,57,44,-100,-100,-100,0,0,100,0.00,40.00,0,-999,0,0.00
2012-5-14,72,52,33,-100,-100,-100,0,0,100,0.00,40.00,0,-999,0,0.00
2012-5-15,75,59,43,-100,-100,-100,0,0,100,0.00,40.00,0,-999,0,0.00
2012-5-16,57,57,57,-100,-100,-100,0,0,100,0.00,40.00,0,-999,0,0.00
2012-5-17,58,50,43,-100,-100,-100,0,0,100,0.00,40.00,0,-999,0,0.00
2012-5-18,46,43,33,-100,-100,-100,0,0,100,0.00,40.00,0,-999,0,0.02
2012-5-19,60,46,30,-100,-100,-100,0,0,100,0.00,40.00,0,-999,0,0.00
2012-5-20,66,53,41,-100,-100,-100,0,0,100,0.00,40.00,0,-999,0,0.00
2012-5-21,73,52,30,-100,-100,-100,0,0,100,0.00,40.00,0,-999,0,0.00
2012-5-22,59,49,40,-100,-100,-100,0,0,100,0.00,40.00,0,-999,0,0.03
2012-5-23,45,38,32,-100,-100,-100,0,0,100,0.00,40.00,0,-999,0,0.03
2012-5-24,46,39,29,-100,-100,-100,0,0,100,0.00,40.00,0,-999,0,0.01
2012-5-25,38,36,35,-100,-100,-100,0,0,100,0.00,40.00,0,-999,0,0.02
2012-5-26,42,38,35,-100,-100,-100,0,0,100,0.00,40.00,0,-999,0,0.03
2012-5-27,43,38,35,-100,-100,-100,0,0,100,0.00,40.00,0,-999,0,0.01
2012-5-28,52,42,35,-100,-100,-100,0,0,100,0.00,40.00,0,-999,0,0.00
2012-5-29,59,43,28,-100,-100,-100,0,0,100,0.00,40.00,0,-999,0,0.00
2012-5-30,56,52,46,-100,-100,-100,0,0,100,0.00,40.00,0,-999,0,0.00
2012-5-31,61,48,38,-100,-100,-100,0,0,100,0.00,40.00,0,-999,0,0.00
2012-6-1,67,57,46,-100,-100,-100,0,0,100,0.00,40.00,0,-999,0,0.00
2012-6-2,68,52,35,-100,-100,-100,0,0,100,0.00,40.00,0,-999,0,0.02
2012-6-3,73,57,47,-100,-100,-100,0,0,100,0.00,40.00,0,-999,0,0.01
2012-6-4,82,65,44,-100,-100,-100,0,0,100,0.00,40.00,0,-999,0,0.00
2012-6-5,56,46,38,-100,-100,-100,0,0,100,0.00,40.00,0,-999,0,0.01
2012-6-6,39,35,31,-100,-100,-100,0,0,100,0.00,40.00,0,-999,0,0.00
2012-6-7,58,45,29,-100,-100,-100,0,0,100,0.00,40.00,0,-999,0,0.00
2012-6-8,62,51,35,-100,-100,-100,0,0,100,0.00,40.00,0,-999,0,0.01
2012-6-9,52,42,34,-100,-100,-100,0,0,100,0.00,40.00,0,-999,0,0.03
2012-6-10,47,40,34,-100,-100,-100,0,0,100,0.00,40.00,0,-999,0,0.01
2012-6-11,63,49,33,-100,-100,-100,0,0,100,0.00,40.00,0,-999,0,0.00
2012-6-12,67,53,32,-100,-100,-100,0,0,100,0.00,40.00,0,-999,0,0.00
2012-6-13,66,51,41,-100,-100,-100,0,0,100,0.00,40.00,0,-999,0,0.01
2012-6-14,63,50,36,-100,-100,-100,0,0,100,0.00,40.00,0,-999,0,0.00
2012-6-15,66,52,35,-100,-100,-100,0,0,100,0.00,40.00,0,-999,0,0.01
2012-6-16,65,52,36,-100,-100,-100,0,0,100,0.00,40.00,0,-999,0,0.00
2012-6-17,47,47,47,-100,-100,-100,0,0,100,0.00,40.00,0,-999,0,0.00
2012-6-18,68,56,44,-100,-100,-100,0,0,100,0.00,40.00,0,-999,0,0.00
2012-6-19,55,45,34,-100,-100,-100,0,0,100,0.00,40.00,0,-999,0,0.01
2012-6-20,65,52,41,-100,-100,-100,0,0,100,0.00,40.00,0,-999,0,0.00
2012-6-21,71,49,29,-100,-100,-100,0,0,100,0.00,40.00,0,-999,0,0.00
2012-6-22,79,64,41,-100,-100,-100,0,0,100,0.00,40.00,0,-999,0,0.00
2012-6-23,82,61,37,-100,-100,-100,0,0,100,0.00,40.00,0,-999,0,0.00
2012-6-24,85,63,38,-100,-100,-100,0,0,100,0.00,40.00,0,-999,0,0.00
2012-6-25,83,65,42,-100,-100,-100,0,0,100,0.00,40.00,0,-999,0,0.00
2012-6-26,69,60,42,-100,-100,-100,0,0,100,0.00,40.00,0,-999,0,0.01
2012-6-27,70,52,32,-100,-100,-100,0,0,100,0.00,40.00,0,-999,0,0.00
2012-6-28,79,64,38,-100,-100,-100,0,0,100,0.00,40.00,0,-999,0,0.00
2012-6-29,81,65,47,-100,-100,-100,0,0,100,0.00,40.00,0,-999,0,0.00
2012-6-30,83,68,55,-100,-100,-100,0,0,100,0.00,40.00,0,-999,0,0.00
2012-7-1,82,66,44,-100,-100,-100,0,0,100,0.00,40.00,0,-999,0,0.00
2012-7-2,82,63,48,-100,-100,-100,0,0,100,0.00,40.00,0,-999,0,0.00
2012-7-3,80,64,41,-100,-100,-100,0,0,100,0.00,40.00,0,-999,0,0.00
2012-7-4,79,68,54,-100,-100,-100,0,0,100,0.00,40.00,0,-999,0,0.00
2012-7-5,65,51,40,-100,-100,-100,0,0,100,0.00,40.00,0,-999,0,0.01
2012-7-6,79,61,45,-100,-100,-100,0,0,100,0.00,40.00,0,-999,0,0.00
2012-7-7,82,59,40,-100,-100,-100,0,0,100,0.00,40.00,0,-999,0,0.01
2012-7-8,79,61,45,-100,-100,-100,0,0,100,0.00,40.00,0,-999,0,0.01
2012-7-9,86,69,40,-100,-100,-100,0,0,100,0.00,40.00,0,-999,0,0.00
2012-7-10,86,67,54,-100,-100,-100,0,0,100,0.00,40.00,0,-999,0,0.00
2012-7-11,49,49,49,-100,-100,-100,0,0,100,0.00,40.00,0,-999,0,0.00
2012-7-12,58,54,45,-100,-100,-100,0,0,100,0.00,40.00,0,-999,0,0.00
2012-7-13,84,64,55,-100,-100,-100,0,0,100,0.00,40.00,0,-999,0,0.00
2012-7-14,68,60,55,-100,-100,-100,0,0,100,0.00,40.00,0,-999,0,0.01
2012-7-15,65,58,53,-100,-100,-100,0,0,100,0.00,40.00,0,-999,0,0.01
2012-7-16,65,54,49,-100,-100,-100,0,0,100,0.00,40.00,0,-999,0,0.00
2012-7-17,77,66,53,-100,-100,-100,0,0,100,0.00,40.00,0,-999,0,0.00
2012-7-18,79,68,46,-100,-100,-100,0,0,100,0.00,40.00,0,-999,0,0.00
2012-7-19,83,59,40,-100,-100,-100,0,0,100,0.00,40.00,0,-999,0,0.00
2012-7-20,83,68,57,-100,-100,-100,0,0,100,0.00,40.00,0,-999,0,0.00
2012-7-21,84,68,44,-100,-100,-100,0,0,100,0.00,40.00,0,-999,0,0.00
2012-7-22,85,61,45,-100,-100,-100,0,0,100,0.00,40.00,0,-999,0,0.01
2012-7-23,80,69,55,-100,-100,-100,0,0,100,0.00,40.00,0,-999,0,0.00
2012-7-24,77,62,51,-100,-100,-100,0,0,100,0.00,40.00,0,-999,0,0.00
2012-7-25,81,61,49,-100,-100,-100,0,0,100,0.00,40.00,0,-999,0,0.00
2012-7-26,70,51,38,-100,-100,-100,0,0,100,0.00,40.00,0,-999,0,0.00
2012-7-27,81,62,46,-100,-100,-100,0,0,100,0.00,40.00,0,-999,0,0.01
2012-7-28,85,63,44,-100,-100,-100,0,0,100,0.00,40.00,0,-999,0,0.00
2012-7-29,86,61,41,-100,-100,-100,0,0,100,0.00,40.00,0,-999,0,0.00
2012-7-30,76,54,38,-100,-100,-100,0,0,100,0.00,40.00,0,-999,0,0.00
2012-7-31,85,67,41,-100,-100,-100,0,0,100,0.00,40.00,0,-999,0,0.00
2012-8-1,83,69,53,-100,-100,-100,0,0,100,0.00,40.00,0,-999,0,0.00
2012-8-2,79,62,44,-100,-100,-100,0,0,100,0.00,40.00,0,-999,0,0.00
2012-8-3,70,57,47,-100,-100,-100,0,0,100,0.00,40.00,0,-999,0,0.00
2012-8-4,79,55,33,-100,-100,-100,0,0,100,0.00,40.00,0,-999,0,0.00
2012-8-5,87,59,35,-100,-100,-100,0,0,100,0.00,40.00,0,-999,0,0.00
2012-8-6,81,59,48,-100,-100,-100,0,0,100,0.00,40.00,0,-999,0,0.01
2012-8-7,84,61,43,-100,-100,-100,0,0,100,0.00,40.00,0,-999,0,0.00
2012-8-8,87,63,40,-100,-100,-100,0,0,100,0.00,40.00,0,-999,0,0.00
2012-8-9,86,73,59,-100,-100,-100,0,0,100,0.00,40.00,0,-999,0,0.00
2012-8-10,79,60,50,-100,-100,-100,0,0,100,0.00,40.00,0,-999,0,0.01
2012-8-11,78,61,47,-100,-100,-100,0,0,100,0.00,40.00,0,-999,0,0.00
2012-8-12,83,67,45,-100,-100,-100,0,0,100,0.00,40.00,0,-999,0,0.00
2012-8-13,84,62,43,-100,-100,-100,0,0,100,0.00,40.00,0,-999,0,0.00
2012-8-14,83,68,42,-100,-100,-100,0,0,100,0.00,40.00,0,-999,0,0.00
2012-8-15,70,54,39,-100,-100,-100,0,0,100,0.00,40.00,0,-999,0,0.00
2012-8-16,82,56,37,-100,-100,-100,0,0,100,0.00,40.00,0,-999,0,0.00
2012-8-17,72,56,42,-100,-100,-100,0,0,100,0.00,40.00,0,-999,0,0.00
2012-8-18,80,57,36,-100,-100,-100,0,0,100,0.00,40.00,0,-999,0,0.00
2012-8-19,79,58,41,-100,-100,-100,0,0,100,0.00,40.00,0,-999,0,0.00
2012-8-20,77,60,48,-100,-100,-100,0,0,100,0.00,40.00,0,-999,0,0.00
2012-8-21,81,61,43,-100,-100,-100,0,0,100,0.00,40.00,0,-999,0,0.00
2012-8-22,72,60,48,-100,-100,-100,0,0,100,0.00,40.00,0,-999,0,0.01
2012-8-23,75,57,38,-100,-100,-100,0,0,100,0.00,40.00,0,-999,0,0.00
2012-8-24,76,59,47,-100,-100,-100,0,0,100,0.00,40.00,0,-999,0,0.00
2012-8-25,74,55,35,-100,-100,-100,0,0,100,0.00,40.00,0,-999,0,0.00
2012-8-26,82,62,36,-100,-100,-100,0,0,100,0.00,40.00,0,-999,0,0.00
2012-8-27,82,64,52,-100,-100,-100,0,0,100,0.00,40.00,0,-999,0,0.00
2012-8-28,85,64,48,-100,-100,-100,0,0,100,0.00,40.00,0,-999,0,0.00
2012-8-29,79,60,42,-100,-100,-100,0,0,100,0.00,40.00,0,-999,0,0.00
2012-8-30,80,65,41,-100,-100,-100,0,0,100,0.00,40.00,0,-999,0,0.00
2012-8-31,76,58,39,-100,-100,-100,0,0,100,0.00,40.00,0,-999,0,0.00
2012-9-1,65,54,48,-100,-100,-100,0,0,100,0.00,40.00,0,-999,0,0.02
2012-9-2,69,53,41,-100,-100,-100,0,0,100,0.00,40.00,0,-999,0,0.01
2012-9-3,71,54,34,-100,-100,-100,0,0,100,0.00,40.00,0,-999,0,0.00
2012-9-4,73,51,31,-100,-100,-100,0,0,100,0.00,40.00,0,-999,0,0.00
2012-9-5,69,45,30,-100,-100,-100,0,0,100,0.00,40.00,0,-999,0,0.00
2012-9-6,65,50,36,-100,-100,-100,0,0,100,0.00,40.00,0,-999,0,0.01
2012-9-7,71,55,34,-100,-100,-100,0,0,100,0.00,40.00,0,-999,0,0.00
2012-9-8,75,56,34,-100,-100,-100,0,0,100,0.00,40.00,0,-999,0,0.00
2012-9-9,72,54,35,-100,-100,-100,0,0,100,0.00,40.00,0,-999,0,0.00
2012-9-10,73,60,44,-100,-100,-100,0,0,100,0.00,40.00,0,-999,0,0.00
2012-9-11,65,51,36,-100,-100,-100,0,0,100,0.00,40.00,0,-999,0,0.00
2012-9-12,64,42,27,-100,-100,-100,0,0,100,0.00,40.00,0,-999,0,0.00
2012-9-13,71,49,27,-100,-100,-100,0,0,100,0.00,40.00,0,-999,0,0.00
2012-9-14,75,51,32,-100,-100,-100,0,0,100,0.00,40.00,0,-999,0,0.00
2012-9-15,75,52,32,-100,-100,-100,0,0,100,0.00,40.00,0,-999,0,0.00
2012-9-16,67,50,34,-100,-100,-100,0,0,100,0.00,40.00,0,-999,0,0.00
2012-9-17,66,46,29,-100,-100,-100,0,0,100,0.00,40.00,0,-999,0,0.00
2012-9-18,57,47,29,-100,-100,-100,0,0,100,0.00,40.00,0,-999,0,0.00
2012-9-19,74,49,31,-100,-100,-100,0,0,100,0.00,40.00,0,-999,0,0.00
2012-9-20,73,55,30,-100,-100,-100,0,0,100,0.00,40.00,0,-999,0,0.00
2012-9-21,76,51,30,-100,-100,-100,0,0,100,0.00,40.00,0,-999,0,0.00
2012-9-22,57,46,29,-100,-100,-100,0,0,100,0.00,40.00,0,-999,0,0.00
2012-9-23,65,49,35,-100,-100,-100,0,0,100,0.00,40.00,0,-999,0,0.00
2012-9-24,59,47,43,-100,-100,-100,0,0,100,0.00,40.00,0,-999,0,0.01
2012-9-25,64,50,42,-100,-100,-100,0,0,100,0.00,40.00,0,-999,0,0.00
2012-9-26,66,56,43,-100,-100,-100,0,0,100,0.00,40.00,0,-999,0,0.00
2012-9-27,68,52,33,-100,-100,-100,0,0,100,0.00,40.00,0,-999,0,0.00
2012-9-28,58,44,31,-100,-100,-100,0,0,100,0.00,40.00,0,-999,0,0.00
2012-9-29,65,51,42,-100,-100,-100,0,0,100,0.00,40.00,0,-999,0,0.00
2012-9-30,67,49,31,-100,-100,-100,0,0,100,0.00,40.00,0,-999,0,0.00
2012-10-1,67,52,33,-100,-100,-100,0,0,100,0.00,40.00,0,-999,0,0.00
2012-10-2,65,53,36,-100,-100,-100,0,0,100,0.00,40.00,0,-999,0,0.00
2012-10-3,47,39,27,-100,-100,-100,0,0,100,0.00,40.00,0,-999,0,0.00
2012-10-4,44,32,14,-100,-100,-100,0,0,100,0.00,40.00,0,-999,0,0.00
2012-10-5,44,33,13,-100,-100,-100,0,0,100,0.00,40.00,0,-999,0,0.00
2012-10-6,45,26,9,-100,-100,-100,0,0,100,0.00,40.00,0,-999,0,0.00
2012-10-7,55,36,14,-100,-100,-100,0,0,100,0.00,40.00,0,-999,0,0.00
2012-10-8,52,44,31,-100,-100,-100,0,0,100,0.00,40.00,0,-999,0,0.00
2012-10-9,53,40,28,-100,-100,-100,0,0,100,0.00,40.00,0,-999,0,0.00
2012-10-10,63,37,19,-100,-100,-100,0,0,100,0.00,40.00,0,-999,0,0.00
2012-10-11,65,42,20,-100,-100,-100,0,0,100,0.00,40.00,0,-999,0,0.00
2012-10-12,68,44,22,-100,-100,-100,0,0,100,0.00,40.00,0,-999,0,0.00
2012-10-13,49,41,30,-100,-100,-100,0,0,100,0.00,40.00,0,-999,0,0.00
2012-10-14,54,42,28,-100,-100,-100,0,0,100,0.00,40.00,0,-999,0,0.00
2012-10-15,49,43,37,-100,-100,-100,0,0,100,0.00,40.00,0,-999,0,0.00
2012-10-16,47,42,36,-100,-100,-100,0,0,100,0.00,40.00,0,-999,0,0.01
2012-10-17,40,33,29,-100,-100,-100,0,0,100,0.00,40.00,0,-999,0,0.01
2012-10-18,49,36,20,-100,-100,-100,0,0,100,0.00,40.00,0,-999,0,0.00
2012-10-19,47,40,23,-100,-100,-100,0,0,100,0.00,40.00,0,-999,0,0.00
2012-10-20,47,44,39,-100,-100,-100,0,0,100,0.00,40.00,0,-999,0,0.01
2012-10-21,47,41,34,-100,-100,-100,0,0,100,0.00,40.00,0,-999,0,0.00
2012-10-22,36,33,30,-100,-100,-100,0,0,100,0.00,40.00,0,-999,0,0.00
2012-10-23,35,32,27,-100,-100,-100,0,0,100,0.00,40.00,0,-999,0,0.01
2012-10-24,40,24,18,-100,-100,-100,0,0,100,0.00,40.00,0,-999,0,0.01
2012-10-25,33,25,19,-100,-100,-100,0,0,100,0.00,40.00,0,-999,0,0.01
2012-10-26,27,24,14,-100,-100,-100,0,0,100,0.00,40.00,0,-999,0,0.00
2012-10-27,33,30,28,-100,-100,-100,0,0,100,0.00,40.00,0,-999,0,0.00
2012-10-28,41,37,34,-100,-100,-100,0,0,100,0.00,40.00,0,-999,0,0.01
2012-10-29,48,43,39,-100,-100,-100,0,0,100,0.00,40.00,0,-999,0,0.00
2012-10-30,52,39,31,-100,-100,-100,0,0,100,0.00,40.00,0,-999,0,0.00
2012-10-31,56,38,26,-100,-100,-100,0,0,100,0.00,40.00,0,-999,0,0.00
2012-11-1,52,40,29,-100,-100,-100,0,0,100,0.00,40.00,0,-999,0,0.00
2012-11-2,47,37,26,-100,-100,-100,0,0,100,0.00,40.00,0,-999,0,0.00
2012-11-3,40,35,24,-100,-100,-100,0,0,100,0.00,40.00,0,-999,0,0.00
2012-11-4,49,39,32,-100,-100,-100,0,0,100,0.00,40.00,0,-999,0,0.00
2012-11-5,47,38,30,-100,-100,-100,0,0,100,0.00,40.00,0,-999,0,0.00
2012-11-6,51,38,31,-100,-100,-100,0,0,100,0.00,40.00,0,-999,0,0.00
2012-11-7,52,40,27,-100,-100,-100,0,0,100,0.00,40.00,0,-999,0,0.00
2012-11-8,43,37,34,-100,-100,-100,0,0,100,0.00,40.00,0,-999,0,0.00
2012-11-9,36,32,27,-100,-100,-100,0,0,100,0.00,40.00,0,-999,0,0.02
2012-11-10,25,18,3,-100,-100,-100,0,0,100,0.00,40.00,0,-999,0,0.00
2012-11-11,22,8,-10,-100,-100,-100,0,0,100,0.00,40.00,0,-999,0,0.00
2012-11-12,27,23,20,-100,-100,-100,0,0,100,0.00,40.00,0,-999,0,0.00
2012-11-13,31,27,24,-100,-100,-100,0,0,100,0.00,40.00,0,-999,0,0.00
2012-11-14,37,30,24,-100,-100,-100,0,0,100,0.00,40.00,0,-999,0,0.00
2012-11-15,37,30,23,-100,-100,-100,0,0,100,0.00,40.00,0,-999,0,0.00
2012-11-16,39,30,12,-100,-100,-100,0,0,100,0.00,40.00,0,-999,0,0.00
2012-11-17,42,36,32,-100,-100,-100,0,0,100,0.00,40.00,0,-999,0,0.00
2012-11-18,38,36,34,-100,-100,-100,0,0,100,0.00,40.00,0,-999,0,0.02
2012-11-19,39,36,33,-100,-100,-100,0,0,100,0.00,40.00,0,-999,0,0.00
2012-11-20,44,39,35,-100,-100,-100,0,0,100,0.00,40.00,0,-999,0,0.01
2012-11-21,41,36,28,-100,-100,-100,0,0,100,0.00,40.00,0,-999,0,0.01
2012-11-22,31,25,19,-100,-100,-100,0,0,100,0.00,40.00,0,-999,0,0.02
2012-11-23,36,25,12,-100,-100,-100,0,0,100,0.00,40.00,0,-999,0,0.00
2012-11-24,37,35,34,-100,-100,-100,0,0,100,0.00,40.00,0,-999,0,0.00
2012-11-25,35,30,20,-100,-100,-100,0,0,100,0.00,40.00,0,-999,0,0.00
2012-11-26,12,5,-1,-100,-100,-100,0,0,100,0.00,40.00,0,-999,0,0.00
2012-11-27,37,30,22,-100,-100,-100,0,0,100,0.00,40.00,0,-999,0,0.00
2012-11-28,40,26,13,-100,-100,-100,0,0,100,0.00,40.00,0,-999,0,0.00
2012-11-29,35,33,31,-100,-100,-100,0,0,100,0.00,40.00,0,-999,0,0.00
2012-11-30,36,35,35,-100,-100,-100,0,0,100,0.00,40.00,0,-999,0,0.02
2012-12-1,38,36,35,-100,-100,-100,0,0,100,0.00,40.00,0,-999,0,0.02
2012-12-2,38,36,31,-100,-100,-100,0,0,100,0.00,40.00,0,-999,0,0.03
2012-12-3,29,29,28,-100,-100,-100,0,0,100,0.00,40.00,0,-999,0,0.02
2012-12-4,33,30,28,-100,-100,-100,0,0,100,0.00,40.00,0,-999,0,0.00
2012-12-5,37,36,36,-100,-100,-100,0,0,100,0.00,40.00,0,-999,0,0.02
2012-12-6,31,30,29,-100,-100,-100,0,0,100,0.00,40.00,0,-999,0,0.00
2012-12-7,26,24,21,-100,-100,-100,0,0,100,0.00,40.00,0,-999,0,0.00
2012-12-8,23,20,16,-100,-100,-100,0,0,100,0.00,40.00,0,-999,0,0.00
2012-12-9,16,9,-4,-100,-100,-100,0,0,100,0.00,40.00,0,-999,0,0.00
2012-12-10,23,22,20,-100,-100,-100,0,0,100,0.00,40.00,0,-999,0,0.00
2012-12-11,30,28,27,-100,-100,-100,0,0,100,0.00,40.00,0,-999,0,0.00
2012-12-12,31,30,29,-100,-100,-100,0,0,100,0.00,40.00,0,-999,0,0.02
2012-12-13,33,27,20,-100,-100,-100,0,0,100,0.00,40.00,0,-999,0,0.01
2012-12-14,34,30,23,-100,-100,-100,0,0,100,0.00,40.00,0,-999,0,0.00
2012-12-15,26,24,22,-100,-100,-100,0,0,100,0.00,40.00,0,-999,0,0.00
2012-12-16,24,22,20,-100,-100,-100,0,0,100,0.00,40.00,0,-999,0,0.00
2012-12-17,33,30,28,-100,-100,-100,0,0,100,0.00,40.00,0,-999,0,0.02
2012-12-18,16,1,-7,-100,-100,-100,0,0,100,0.00,40.00,0,-999,0,0.00
2012-12-19,14,6,-3,-100,-100,-100,0,0,100,0.00,40.00,0,-999,0,0.00
2012-12-20,17,8,-3,-100,-100,-100,0,0,100,0.00,40.00,0,-999,0,0.00
2012-12-21,-13,-14,-15,-100,-100,-100,0,0,100,0.00,40.00,0,-999,0,0.00
2012-12-22,27,26,25,-100,-100,-100,0,0,100,0.00,40.00,0,-999,0,0.00
2012-12-23,26,25,22,-100,-100,-100,0,0,100,0.00,40.00,0,-999,0,0.01
2012-12-24,24,24,24,-100,-100,-100,0,0,100,0.00,40.00,0,-999,0,0.00
2012-12-25,18,8,-11,-100,-100,-100,0,0,100,0.00,40.00,0,-999,0,0.00
2012-12-26,24,16,7,-100,-100,-100,0,0,100,0.00,40.00,0,-999,0,0.00
2012-12-27,27,21,15,-100,-100,-100,0,0,100,0.00,40.00,0,-999,0,0.00
2012-12-28,20,18,16,-100,-100,-100,0,0,100,0.00,40.00,0,-999,0,0.00
2012-12-29,16,12,6,-100,-100,-100,0,0,100,0.00,40.00,0,-999,0,0.00
2012-12-30,23,8,-6,-100,-100,-100,0,0,100,0.00,40.00,0,-999,0,0.00
2012-12-31,11,6,-1,-100,-100,-100,0,0,100,0.00,40.00,0,-999,0,0.00
2013-1-1,16,11,5,-100,-100,-100,0,0,100,0.00,40.00,0,-999,0,0.00